createdAt,value
2017-11-25T00:00:52.909Z,1011.29
2017-11-25T00:01:51.883Z,1011.25
2017-11-25T00:02:51.983Z,1011.23
2017-11-25T00:03:50.970Z,1011.20
2017-11-25T00:04:51.478Z,1011.25
2017-11-25T00:05:50.908Z,1011.21
2017-11-25T00:06:52.275Z,1011.19
2017-11-25T00:07:51.497Z,1011.15
2017-11-25T00:08:50.996Z,1011.14
2017-11-25T00:09:52.315Z,1011.13
2017-11-25T00:10:50.795Z,1011.10
2017-11-25T00:11:51.229Z,1011.07
2017-11-25T00:12:51.148Z,1011.01
2017-11-25T00:13:51.516Z,1010.98
2017-11-25T00:14:50.889Z,1010.96
2017-11-25T00:15:51.334Z,1010.98
2017-11-25T00:16:51.517Z,1010.98
2017-11-25T00:17:51.528Z,1010.95
2017-11-25T00:18:51.103Z,1010.99
2017-11-25T00:19:51.160Z,1011.04
2017-11-25T00:20:51.587Z,1011.02
2017-11-25T00:21:51.409Z,1011.03
2017-11-25T00:22:50.968Z,1010.98
2017-11-25T00:23:52.101Z,1011.01
2017-11-25T00:24:51.602Z,1011.00
2017-11-25T00:25:50.907Z,1010.95
2017-11-25T00:26:51.326Z,1010.99
2017-11-25T00:27:51.028Z,1010.97
2017-11-25T00:28:51.474Z,1010.94
2017-11-25T00:29:50.957Z,1010.97
2017-11-25T00:30:51.488Z,1010.95
2017-11-25T00:31:50.881Z,1010.96
2017-11-25T00:32:51.256Z,1010.99
2017-11-25T00:33:51.559Z,1010.98
2017-11-25T00:34:50.951Z,1011.00
2017-11-25T00:35:51.064Z,1011.07
2017-11-25T00:36:51.346Z,1011.01
2017-11-25T00:37:50.729Z,1011.00
2017-11-25T00:38:51.146Z,1011.00
2017-11-25T00:39:51.575Z,1011.00
2017-11-25T00:40:51.524Z,1011.02
2017-11-25T00:41:51.052Z,1011.00
2017-11-25T00:42:51.360Z,1011.04
2017-11-25T00:43:50.858Z,1011.05
2017-11-25T00:44:51.272Z,1011.03
2017-11-25T00:45:51.010Z,1011.01
2017-11-25T00:46:51.092Z,1011.03
2017-11-25T00:47:51.570Z,1011.01
2017-11-25T00:48:51.311Z,1011.00
2017-11-25T00:49:50.635Z,1010.97
2017-11-25T00:50:50.995Z,1010.99
2017-11-25T00:51:51.435Z,1010.96
2017-11-25T00:52:50.904Z,1010.99
2017-11-25T00:53:51.053Z,1010.97
2017-11-25T00:54:51.065Z,1011.04
2017-11-25T00:55:51.353Z,1011.01
2017-11-25T00:56:50.759Z,1011.05
2017-11-25T00:57:51.083Z,1011.06
2017-11-25T00:58:51.563Z,1011.05
2017-11-25T00:59:50.907Z,1011.01
2017-11-25T01:00:51.415Z,1010.92
2017-11-25T01:01:52.356Z,1010.98
2017-11-25T01:02:50.736Z,1010.96
2017-11-25T01:03:51.190Z,1010.94
2017-11-25T01:04:51.517Z,1010.90
2017-11-25T01:05:50.903Z,1010.84
2017-11-25T01:06:51.337Z,1010.83
2017-11-25T01:07:50.850Z,1010.80
2017-11-25T01:08:51.373Z,1010.80
2017-11-25T01:09:51.688Z,1010.76
2017-11-25T01:10:51.083Z,1010.75
2017-11-25T01:11:51.528Z,1010.76
2017-11-25T01:12:50.909Z,1010.84
2017-11-25T01:13:51.615Z,1010.93
2017-11-25T01:14:51.352Z,1010.97
2017-11-25T01:15:51.682Z,1010.98
2017-11-25T01:16:50.043Z,1010.94
2017-11-25T01:17:50.541Z,1010.94
2017-11-25T01:18:50.010Z,1010.88
2017-11-25T01:19:50.245Z,1010.87
2017-11-25T01:20:51.033Z,1010.92
2017-11-25T01:21:49.895Z,1010.96
2017-11-25T01:22:49.771Z,1011.01
2017-11-25T01:23:50.092Z,1011.01
2017-11-25T01:24:50.316Z,1010.99
2017-11-25T01:25:50.359Z,1011.00
2017-11-25T01:26:49.815Z,1011.02
2017-11-25T01:27:49.855Z,1011.01
2017-11-25T01:28:49.628Z,1011.03
2017-11-25T01:29:50.080Z,1011.06
2017-11-25T01:30:56.752Z,1011.09
2017-11-25T01:31:50.240Z,1011.09
2017-11-25T01:32:49.711Z,1011.08
2017-11-25T01:33:50.217Z,1011.07
2017-11-25T01:34:50.855Z,1011.05
2017-11-25T01:35:50.289Z,1011.04
2017-11-25T01:36:50.461Z,1011.03
2017-11-25T01:37:49.606Z,1011.04
2017-11-25T01:38:49.696Z,1011.05
2017-11-25T01:39:49.960Z,1011.10
2017-11-25T01:40:50.308Z,1011.15
2017-11-25T01:41:50.405Z,1011.16
2017-11-25T01:42:49.541Z,1011.21
2017-11-25T01:43:49.914Z,1011.22
2017-11-25T01:44:50.370Z,1011.15
2017-11-25T01:45:49.769Z,1011.18
2017-11-25T01:46:49.830Z,1011.22
2017-11-25T01:47:49.466Z,1011.19
2017-11-25T01:48:49.979Z,1011.22
2017-11-25T01:49:49.954Z,1011.19
2017-11-25T01:50:50.039Z,1011.16
2017-11-25T01:51:50.045Z,1011.14
2017-11-25T01:52:49.949Z,1011.10
2017-11-25T01:53:50.309Z,1011.12
2017-11-25T01:54:49.144Z,1011.12
2017-11-25T01:55:50.332Z,1011.05
2017-11-25T01:56:49.241Z,1011.02
2017-11-25T01:57:50.504Z,1011.03
2017-11-25T01:58:49.963Z,1011.04
2017-11-25T01:59:50.436Z,1010.99
2017-11-25T02:00:49.934Z,1010.98
2017-11-25T02:01:49.565Z,1010.91
2017-11-25T02:02:50.623Z,1010.93
2017-11-25T02:03:49.469Z,1010.88
2017-11-25T02:04:49.622Z,1010.94
2017-11-25T02:05:49.473Z,1010.84
2017-11-25T02:06:50.479Z,1010.83
2017-11-25T02:07:50.258Z,1010.85
2017-11-25T02:08:50.093Z,1010.79
2017-11-25T02:09:50.574Z,1010.76
2017-11-25T02:10:49.809Z,1010.76
2017-11-25T02:11:50.051Z,1010.69
2017-11-25T02:12:50.407Z,1010.67
2017-11-25T02:13:50.237Z,1010.62
2017-11-25T02:14:50.586Z,1010.59
2017-11-25T02:15:50.517Z,1010.58
2017-11-25T02:16:49.548Z,1010.61
2017-11-25T02:17:50.011Z,1010.58
2017-11-25T02:18:50.729Z,1010.60
2017-11-25T02:19:50.018Z,1010.56
2017-11-25T02:20:50.273Z,1010.57
2017-11-25T02:21:49.635Z,1010.57
2017-11-25T02:22:49.923Z,1010.56
2017-11-25T02:23:50.526Z,1010.55
2017-11-25T02:24:49.606Z,1010.54
2017-11-25T02:25:49.856Z,1010.53
2017-11-25T02:26:50.254Z,1010.47
2017-11-25T02:27:49.519Z,1010.45
2017-11-25T02:28:49.494Z,1010.47
2017-11-25T02:29:50.137Z,1010.46
2017-11-25T02:30:49.640Z,1010.43
2017-11-25T02:31:50.148Z,1010.41
2017-11-25T02:32:50.444Z,1010.39
2017-11-25T02:33:49.765Z,1010.40
2017-11-25T02:34:50.407Z,1010.38
2017-11-25T02:35:50.468Z,1010.38
2017-11-25T02:36:49.892Z,1010.39
2017-11-25T02:37:50.092Z,1010.40
2017-11-25T02:38:50.463Z,1010.38
2017-11-25T02:39:49.738Z,1010.41
2017-11-25T02:40:50.139Z,1010.36
2017-11-25T02:41:50.897Z,1010.34
2017-11-25T02:42:50.191Z,1010.32
2017-11-25T02:43:50.062Z,1010.26
2017-11-25T02:44:50.369Z,1010.26
2017-11-25T02:45:49.526Z,1010.23
2017-11-25T02:46:50.016Z,1010.18
2017-11-25T02:47:50.372Z,1010.14
2017-11-25T02:48:49.374Z,1010.10
2017-11-25T02:49:49.732Z,1010.06
2017-11-25T02:50:50.025Z,1010.03
2017-11-25T02:51:50.002Z,1010.04
2017-11-25T02:52:49.835Z,1010.05
2017-11-25T02:53:50.385Z,1010.09
2017-11-25T02:54:49.588Z,1010.09
2017-11-25T02:55:50.253Z,1010.07
2017-11-25T02:56:50.045Z,1010.10
2017-11-25T02:57:49.989Z,1010.10
2017-11-25T02:58:50.017Z,1010.06
2017-11-25T02:59:49.945Z,1009.94
2017-11-25T03:00:49.904Z,1009.89
2017-11-25T03:01:49.819Z,1009.87
2017-11-25T03:02:49.892Z,1009.85
2017-11-25T03:03:50.230Z,1009.86
2017-11-25T03:06:08.164Z,1009.73
2017-11-25T03:07:08.622Z,1009.74
2017-11-25T03:08:08.873Z,1009.74
2017-11-25T03:09:08.019Z,1009.70
2017-11-25T03:10:08.160Z,1009.73
2017-11-25T03:11:08.783Z,1009.74
2017-11-25T03:12:07.637Z,1009.76
2017-11-25T03:13:09.673Z,1009.72
2017-11-25T03:14:08.952Z,1009.74
2017-11-25T03:15:08.254Z,1009.61
2017-11-25T03:16:08.585Z,1009.54
2017-11-25T03:17:08.841Z,1009.51
2017-11-25T03:18:08.016Z,1009.44
2017-11-25T03:19:08.036Z,1009.46
2017-11-25T03:20:08.304Z,1009.44
2017-11-25T03:21:08.768Z,1009.51
2017-11-25T03:22:08.620Z,1009.56
2017-11-25T03:23:08.523Z,1009.67
2017-11-25T03:24:08.793Z,1009.73
2017-11-25T03:25:08.117Z,1009.73
2017-11-25T03:26:08.640Z,1009.71
2017-11-25T03:27:08.829Z,1009.69
2017-11-25T03:28:07.992Z,1009.64
2017-11-25T03:29:08.276Z,1009.58
2017-11-25T03:30:08.670Z,1009.54
2017-11-25T03:31:08.501Z,1009.55
2017-11-25T03:32:08.187Z,1009.56
2017-11-25T03:33:08.305Z,1009.60
2017-11-25T03:34:08.476Z,1009.59
2017-11-25T03:35:08.957Z,1009.55
2017-11-25T03:36:08.244Z,1009.54
2017-11-25T03:37:08.315Z,1009.60
2017-11-25T03:38:08.368Z,1009.66
2017-11-25T03:39:08.582Z,1009.63
2017-11-25T03:40:08.794Z,1009.55
2017-11-25T03:41:08.091Z,1009.53
2017-11-25T03:42:08.482Z,1009.51
2017-11-25T03:43:08.961Z,1009.53
2017-11-25T03:44:08.304Z,1009.52
2017-11-25T03:45:07.973Z,1009.55
2017-11-25T03:46:08.402Z,1009.58
2017-11-25T03:47:08.864Z,1009.57
2017-11-25T03:48:08.097Z,1009.55
2017-11-25T03:49:08.161Z,1009.59
2017-11-25T03:50:08.139Z,1009.57
2017-11-25T03:51:08.195Z,1009.58
2017-11-25T03:52:09.168Z,1009.51
2017-11-25T03:53:08.478Z,1009.44
2017-11-25T03:54:08.669Z,1009.47
2017-11-25T03:55:09.036Z,1009.51
2017-11-25T03:56:08.474Z,1009.53
2017-11-25T03:57:08.631Z,1009.55
2017-11-25T03:58:08.814Z,1009.56
2017-11-25T03:59:08.345Z,1009.55
2017-11-25T04:00:08.836Z,1009.54
2017-11-25T04:01:08.458Z,1009.49
2017-11-25T04:02:08.804Z,1009.49
2017-11-25T04:03:07.970Z,1009.53
2017-11-25T04:04:08.166Z,1009.53
2017-11-25T04:05:08.443Z,1009.53
2017-11-25T04:06:08.695Z,1009.54
2017-11-25T04:07:08.104Z,1009.44
2017-11-25T04:08:08.476Z,1009.48
2017-11-25T04:09:08.480Z,1009.39
2017-11-25T04:10:07.528Z,1009.39
2017-11-25T04:11:07.676Z,1009.34
2017-11-25T04:12:08.803Z,1009.37
2017-11-25T04:13:07.920Z,1009.34
2017-11-25T04:14:07.764Z,1009.44
2017-11-25T04:15:11.451Z,1009.45
2017-11-25T04:16:08.498Z,1009.43
2017-11-25T04:17:08.897Z,1009.40
2017-11-25T04:18:08.321Z,1009.29
2017-11-25T04:19:08.400Z,1009.30
2017-11-25T04:20:08.363Z,1009.28
2017-11-25T04:21:08.499Z,1009.24
2017-11-25T04:22:08.516Z,1009.16
2017-11-25T04:23:09.233Z,1009.20
2017-11-25T04:24:08.594Z,1009.24
2017-11-25T04:25:08.751Z,1009.26
2017-11-25T04:26:07.840Z,1009.30
2017-11-25T04:27:07.906Z,1009.31
2017-11-25T04:28:08.548Z,1009.33
2017-11-25T04:29:08.822Z,1009.30
2017-11-25T04:30:07.925Z,1009.25
2017-11-25T04:31:08.080Z,1009.23
2017-11-25T04:32:08.459Z,1009.21
2017-11-25T04:33:08.403Z,1009.20
2017-11-25T04:34:08.716Z,1009.23
2017-11-25T04:35:08.072Z,1009.25
2017-11-25T04:36:08.075Z,1009.22
2017-11-25T04:37:08.176Z,1009.23
2017-11-25T04:38:08.979Z,1009.17
2017-11-25T04:39:08.502Z,1009.10
2017-11-25T04:40:08.491Z,1009.09
2017-11-25T04:41:08.513Z,1009.09
2017-11-25T04:42:08.918Z,1009.03
2017-11-25T04:43:08.077Z,1009.09
2017-11-25T04:44:07.992Z,1009.00
2017-11-25T04:45:08.369Z,1009.10
2017-11-25T04:46:08.259Z,1009.08
2017-11-25T04:47:08.367Z,1009.08
2017-11-25T04:48:08.508Z,1009.06
2017-11-25T04:49:08.527Z,1009.03
2017-11-25T04:50:08.634Z,1009.04
2017-11-25T04:51:08.470Z,1009.11
2017-11-25T04:52:08.580Z,1009.11
2017-11-25T04:53:08.608Z,1009.08
2017-11-25T04:54:07.716Z,1009.04
2017-11-25T04:55:07.813Z,1009.04
2017-11-25T04:56:08.132Z,1008.93
2017-11-25T04:57:08.234Z,1008.96
2017-11-25T04:58:08.530Z,1008.90
2017-11-25T04:59:08.424Z,1008.89
2017-11-25T05:00:08.448Z,1008.87
2017-11-25T05:01:09.025Z,1008.88
2017-11-25T05:02:07.797Z,1008.86
2017-11-25T05:03:08.466Z,1008.87
2017-11-25T05:04:08.400Z,1008.85
2017-11-25T05:05:08.369Z,1008.86
2017-11-25T05:06:08.589Z,1008.82
2017-11-25T05:07:07.654Z,1008.80
2017-11-25T05:08:08.873Z,1008.74
2017-11-25T05:09:08.532Z,1008.63
2017-11-25T05:10:07.902Z,1008.61
2017-11-25T05:11:08.257Z,1008.61
2017-11-25T05:12:08.620Z,1008.62
2017-11-25T05:13:07.917Z,1008.66
2017-11-25T05:14:08.169Z,1008.68
2017-11-25T05:15:08.545Z,1008.68
2017-11-25T05:16:08.758Z,1008.71
2017-11-25T05:17:07.915Z,1008.71
2017-11-25T05:18:08.809Z,1008.72
2017-11-25T05:19:08.634Z,1008.75
2017-11-25T05:20:08.229Z,1008.78
2017-11-25T05:21:08.418Z,1008.80
2017-11-25T05:22:08.393Z,1008.86
2017-11-25T05:23:08.220Z,1008.81
2017-11-25T05:24:08.488Z,1008.81
2017-11-25T05:25:09.077Z,1008.75
2017-11-25T05:26:08.585Z,1008.72
2017-11-25T05:27:07.569Z,1008.71
2017-11-25T05:28:08.855Z,1008.64
2017-11-25T05:29:08.828Z,1008.68
2017-11-25T05:30:08.051Z,1008.63
2017-11-25T05:31:08.365Z,1008.62
2017-11-25T05:32:08.775Z,1008.60
2017-11-25T05:33:08.137Z,1008.62
2017-11-25T05:34:08.725Z,1008.61
2017-11-25T05:35:08.390Z,1008.64
2017-11-25T05:36:08.839Z,1008.62
2017-11-25T05:37:07.880Z,1008.65
2017-11-25T05:38:08.415Z,1008.63
2017-11-25T05:39:08.726Z,1008.65
2017-11-25T05:40:07.668Z,1008.60
2017-11-25T05:41:08.536Z,1008.69
2017-11-25T05:42:08.282Z,1008.71
2017-11-25T05:43:07.971Z,1008.75
2017-11-25T05:44:08.154Z,1008.78
2017-11-25T05:45:08.120Z,1008.78
2017-11-25T05:46:08.226Z,1008.82
2017-11-25T05:47:07.573Z,1008.76
2017-11-25T05:48:07.750Z,1008.79
2017-11-25T05:49:08.246Z,1008.81
2017-11-25T05:50:08.501Z,1008.80
2017-11-25T05:51:09.062Z,1008.81
2017-11-25T05:52:07.952Z,1008.84
2017-11-25T05:53:08.334Z,1008.84
2017-11-25T05:54:08.393Z,1008.80
2017-11-25T05:55:07.832Z,1008.79
2017-11-25T05:56:08.748Z,1008.78
2017-11-25T05:57:08.503Z,1008.81
2017-11-25T05:58:07.979Z,1008.70
2017-11-25T05:59:08.230Z,1008.78
2017-11-25T06:00:08.761Z,1008.75
2017-11-25T06:01:09.382Z,1008.79
2017-11-25T06:02:08.433Z,1008.82
2017-11-25T06:03:08.824Z,1008.84
2017-11-25T06:04:08.037Z,1008.74
2017-11-25T06:05:08.125Z,1008.83
2017-11-25T06:06:08.372Z,1008.86
2017-11-25T06:07:08.383Z,1008.91
2017-11-25T06:08:08.620Z,1008.92
2017-11-25T06:09:09.155Z,1008.95
2017-11-25T06:10:08.324Z,1009.00
2017-11-25T06:11:08.245Z,1008.97
2017-11-25T06:12:08.478Z,1008.93
2017-11-25T06:13:08.668Z,1008.91
2017-11-25T06:14:09.078Z,1008.90
2017-11-25T06:15:08.245Z,1008.86
2017-11-25T06:16:08.123Z,1008.87
2017-11-25T06:17:08.240Z,1008.88
2017-11-25T06:18:08.376Z,1008.86
2017-11-25T06:19:08.627Z,1008.86
2017-11-25T06:20:08.072Z,1008.86
2017-11-25T06:21:08.284Z,1008.86
2017-11-25T06:22:08.445Z,1008.86
2017-11-25T06:23:08.298Z,1008.89
2017-11-25T06:24:08.642Z,1008.92
2017-11-25T06:25:08.536Z,1008.88
2017-11-25T06:26:08.998Z,1008.87
2017-11-25T06:27:08.209Z,1008.87
2017-11-25T06:28:08.646Z,1008.90
2017-11-25T06:29:12.248Z,1008.96
2017-11-25T06:30:08.243Z,1008.98
2017-11-25T06:31:08.180Z,1008.94
2017-11-25T06:32:08.119Z,1008.92
2017-11-25T06:33:07.685Z,1008.87
2017-11-25T06:34:09.071Z,1008.85
2017-11-25T06:35:09.062Z,1008.86
2017-11-25T06:36:08.318Z,1008.87
2017-11-25T06:37:08.639Z,1008.91
2017-11-25T06:38:08.287Z,1008.88
2017-11-25T06:39:08.335Z,1008.90
2017-11-25T06:40:08.641Z,1008.91
2017-11-25T06:41:08.831Z,1008.89
2017-11-25T06:42:08.046Z,1008.87
2017-11-25T06:43:08.326Z,1008.86
2017-11-25T06:44:08.727Z,1008.86
2017-11-25T06:45:08.205Z,1008.80
2017-11-25T06:46:08.704Z,1008.77
2017-11-25T06:47:08.765Z,1008.75
2017-11-25T06:48:07.984Z,1008.73
2017-11-25T06:49:08.292Z,1008.72
2017-11-25T06:50:08.389Z,1008.71
2017-11-25T06:51:08.969Z,1008.67
2017-11-25T06:52:08.496Z,1008.68
2017-11-25T06:53:08.683Z,1008.70
2017-11-25T06:54:09.689Z,1008.68
2017-11-25T06:55:08.847Z,1008.66
2017-11-25T06:56:08.883Z,1008.62
2017-11-25T06:57:08.090Z,1008.62
2017-11-25T06:58:08.827Z,1008.64
2017-11-25T06:59:08.277Z,1008.68
2017-11-25T07:00:08.797Z,1008.73
2017-11-25T07:01:08.145Z,1008.72
2017-11-25T07:02:08.628Z,1008.76
2017-11-25T07:03:08.825Z,1008.81
2017-11-25T07:04:08.525Z,1008.84
2017-11-25T07:05:09.523Z,1008.84
2017-11-25T07:06:08.922Z,1008.89
2017-11-25T07:07:08.373Z,1008.89
2017-11-25T07:08:09.020Z,1008.90
2017-11-25T07:09:08.278Z,1008.90
2017-11-25T07:10:08.736Z,1008.90
2017-11-25T07:11:09.527Z,1008.92
2017-11-25T07:12:09.125Z,1008.97
2017-11-25T07:13:08.979Z,1008.96
2017-11-25T07:14:08.199Z,1008.95
2017-11-25T07:15:08.600Z,1008.97
2017-11-25T07:16:09.234Z,1008.96
2017-11-25T07:17:08.886Z,1008.99
2017-11-25T07:18:07.901Z,1008.98
2017-11-25T07:19:08.027Z,1009.02
2017-11-25T07:20:08.624Z,1009.01
2017-11-25T07:21:09.170Z,1009.04
2017-11-25T07:22:08.790Z,1009.04
2017-11-25T07:23:08.301Z,1009.04
2017-11-25T07:24:08.716Z,1009.10
2017-11-25T07:25:08.991Z,1009.14
2017-11-25T07:26:08.093Z,1009.15
2017-11-25T07:27:09.285Z,1009.16
2017-11-25T07:28:08.973Z,1009.12
2017-11-25T07:29:08.217Z,1009.12
2017-11-25T07:30:08.476Z,1009.12
2017-11-25T07:31:27.888Z,1009.10
2017-11-25T07:32:08.460Z,1009.14
2017-11-25T07:33:09.352Z,1009.14
2017-11-25T07:34:10.533Z,1009.17
2017-11-25T07:35:08.048Z,1009.19
2017-11-25T07:36:08.689Z,1009.20
2017-11-25T07:37:08.735Z,1009.25
2017-11-25T07:38:08.812Z,1009.28
2017-11-25T07:39:30.721Z,1009.33
2017-11-25T07:40:12.330Z,1009.35
2017-11-25T07:41:11.034Z,1009.40
2017-11-25T07:42:12.790Z,1009.39
2017-11-25T07:43:10.166Z,1009.35
2017-11-25T07:44:10.157Z,1009.41
2017-11-25T07:45:11.057Z,1009.46
2017-11-25T07:46:09.846Z,1009.48
2017-11-25T07:47:10.425Z,1009.52
2017-11-25T07:54:12.053Z,1009.49
2017-11-25T07:55:12.789Z,1009.50
2017-11-25T07:56:13.127Z,1009.49
2017-11-25T07:57:12.647Z,1009.51
2017-11-25T07:58:13.364Z,1009.55
2017-11-25T07:59:12.402Z,1009.59
2017-11-25T08:00:13.241Z,1009.60
2017-11-25T08:01:12.765Z,1009.61
2017-11-25T08:02:12.450Z,1009.49
2017-11-25T08:03:12.875Z,1009.71
2017-11-25T08:04:12.851Z,1009.69
2017-11-25T08:05:12.847Z,1009.68
2017-11-25T08:06:12.592Z,1009.73
2017-11-25T08:07:13.282Z,1009.72
2017-11-25T08:08:12.477Z,1009.73
2017-11-25T08:09:16.496Z,1009.74
2017-11-25T08:10:14.362Z,1009.75
2017-11-25T08:11:13.997Z,1009.77
2017-11-25T08:12:13.881Z,1009.78
2017-11-25T08:13:13.549Z,1009.81
2017-11-25T08:14:14.361Z,1009.79
2017-11-25T08:15:14.561Z,1009.84
2017-11-25T08:16:14.300Z,1009.81
2017-11-25T08:17:14.024Z,1009.81
2017-11-25T08:18:14.541Z,1009.81
2017-11-25T08:19:14.392Z,1009.82
2017-11-25T08:20:19.875Z,1009.82
2017-11-25T08:21:14.985Z,1009.83
2017-11-25T08:22:14.479Z,1009.87
2017-11-25T08:23:14.770Z,1009.82
2017-11-25T08:24:14.237Z,1009.84
2017-11-25T08:25:14.520Z,1009.86
2017-11-25T08:26:13.443Z,1009.84
2017-11-25T08:27:17.198Z,1009.89
2017-11-25T08:28:15.090Z,1009.87
2017-11-25T08:29:13.427Z,1009.88
2017-11-25T08:30:14.914Z,1009.93
2017-11-25T08:31:14.436Z,1009.94
2017-11-25T08:32:14.157Z,1009.93
2017-11-25T08:33:13.861Z,1009.97
2017-11-25T08:34:13.478Z,1009.99
2017-11-25T08:35:15.083Z,1010.01
2017-11-25T08:36:14.154Z,1009.96
2017-11-25T08:37:14.101Z,1010.05
2017-11-25T08:38:13.714Z,1009.98
2017-11-25T08:39:15.309Z,1010.00
2017-11-25T08:40:14.196Z,1009.99
2017-11-25T08:41:14.417Z,1010.03
2017-11-25T08:42:13.759Z,1010.04
2017-11-25T08:43:14.319Z,1010.08
2017-11-25T08:44:15.053Z,1010.08
2017-11-25T08:45:13.768Z,1010.08
2017-11-25T08:46:13.455Z,1010.08
2017-11-25T08:47:14.780Z,1010.11
2017-11-25T08:48:13.944Z,1010.10
2017-11-25T08:49:14.221Z,1010.13
2017-11-25T08:50:14.892Z,1010.11
2017-11-25T08:51:15.885Z,1010.16
2017-11-25T08:52:13.759Z,1010.18
2017-11-25T08:53:13.739Z,1010.19
2017-11-25T08:54:13.598Z,1010.16
2017-11-25T08:55:14.589Z,1010.22
2017-11-25T08:56:14.374Z,1010.23
2017-11-25T08:57:14.368Z,1010.17
2017-11-25T08:58:13.794Z,1010.19
2017-11-25T08:59:14.815Z,1010.21
2017-11-25T09:00:13.731Z,1010.20
2017-11-25T09:01:13.582Z,1010.23
2017-11-25T09:02:13.783Z,1010.23
2017-11-25T09:03:13.585Z,1010.23
2017-11-25T09:04:14.444Z,1010.22
2017-11-25T09:05:14.237Z,1010.23
2017-11-25T09:06:14.161Z,1010.24
2017-11-25T09:07:13.566Z,1010.31
2017-11-25T09:08:15.571Z,1010.30
2017-11-25T09:09:14.614Z,1010.31
2017-11-25T09:10:14.397Z,1010.36
2017-11-25T09:11:14.299Z,1010.38
2017-11-25T09:12:14.053Z,1010.40
2017-11-25T09:13:14.308Z,1010.45
2017-11-25T09:14:14.054Z,1010.44
2017-11-25T09:15:14.000Z,1010.39
2017-11-25T09:16:13.889Z,1010.44
2017-11-25T09:17:14.067Z,1010.44
2017-11-25T09:18:13.746Z,1010.43
2017-11-25T09:21:23.391Z,1010.45
2017-11-25T09:22:23.971Z,1010.46
2017-11-25T09:23:23.661Z,1010.45
2017-11-25T09:24:24.270Z,1010.48
2017-11-25T09:25:23.714Z,1010.49
2017-11-25T09:26:24.419Z,1010.46
2017-11-25T09:27:24.849Z,1010.52
2017-11-25T09:28:26.128Z,1010.45
2017-11-25T09:29:26.111Z,1010.48
2017-11-25T09:30:25.554Z,1010.50
2017-11-25T09:31:26.086Z,1010.53
2017-11-25T09:32:25.659Z,1010.52
2017-11-25T09:33:25.576Z,1010.56
2017-11-25T09:34:25.471Z,1010.51
2017-11-25T09:35:31.233Z,1010.49
2017-11-25T09:36:24.494Z,1010.53
2017-11-25T09:37:24.693Z,1010.50
2017-11-25T09:38:25.798Z,1010.48
2017-11-25T09:39:24.329Z,1010.50
2017-11-25T09:40:24.090Z,1010.52
2017-11-25T09:41:26.133Z,1010.52
2017-11-25T09:42:24.067Z,1010.54
2017-11-25T09:43:24.022Z,1010.54
2017-11-25T09:44:24.602Z,1010.50
2017-11-25T09:45:23.695Z,1010.47
2017-11-25T09:46:23.800Z,1010.48
2017-11-25T09:47:23.582Z,1010.49
2017-11-25T09:48:24.215Z,1010.45
2017-11-25T09:49:24.239Z,1010.49
2017-11-25T09:50:24.113Z,1010.48
2017-11-25T09:51:23.863Z,1010.47
2017-11-25T09:52:23.799Z,1010.46
2017-11-25T09:53:24.321Z,1010.45
2017-11-25T09:54:23.766Z,1010.44
2017-11-25T09:55:25.049Z,1010.48
2017-11-25T09:56:24.025Z,1010.42
2017-11-25T09:57:23.822Z,1010.40
2017-11-25T09:58:23.473Z,1010.45
2017-11-25T09:59:24.195Z,1010.33
2017-11-25T10:00:26.783Z,1010.33
2017-11-25T10:01:24.250Z,1010.38
2017-11-25T10:02:23.672Z,1010.34
2017-11-25T10:03:24.149Z,1010.34
2017-11-25T10:04:23.897Z,1010.35
2017-11-25T10:05:23.480Z,1010.37
2017-11-25T10:06:24.813Z,1010.37
2017-11-25T10:07:24.041Z,1010.35
2017-11-25T10:08:23.753Z,1010.39
2017-11-25T10:09:23.875Z,1010.40
2017-11-25T10:10:23.716Z,1010.38
2017-11-25T10:11:25.169Z,1010.31
2017-11-25T10:12:23.865Z,1010.29
2017-11-25T10:13:23.578Z,1010.29
2017-11-25T10:14:24.455Z,1010.29
2017-11-25T10:15:24.183Z,1010.26
2017-11-25T10:16:23.728Z,1010.25
2017-11-25T10:17:23.635Z,1010.24
2017-11-25T10:18:23.933Z,1010.28
2017-11-25T10:19:23.668Z,1010.29
2017-11-25T10:20:24.085Z,1010.29
2017-11-25T10:21:23.747Z,1010.31
2017-11-25T10:22:24.397Z,1010.32
2017-11-25T10:23:24.062Z,1010.32
2017-11-25T10:24:23.757Z,1010.35
2017-11-25T10:25:24.729Z,1010.32
2017-11-25T10:26:32.781Z,1010.29
2017-11-25T10:27:23.863Z,1010.33
2017-11-25T10:28:23.723Z,1010.34
2017-11-25T10:29:24.365Z,1010.36
2017-11-25T10:30:24.102Z,1010.36
2017-11-25T10:31:24.144Z,1010.38
2017-11-25T10:32:24.597Z,1010.38
2017-11-25T10:33:24.514Z,1010.37
2017-11-25T10:34:25.072Z,1010.40
2017-11-25T10:35:23.997Z,1010.38
2017-11-25T10:36:24.424Z,1010.39
2017-11-25T10:37:24.335Z,1010.38
2017-11-25T10:38:26.354Z,1010.39
2017-11-25T10:39:23.984Z,1010.38
2017-11-25T10:40:23.764Z,1010.37
2017-11-25T10:41:24.734Z,1010.38
2017-11-25T10:42:24.312Z,1010.39
2017-11-25T10:43:24.422Z,1010.38
2017-11-25T10:44:24.145Z,1010.39
2017-11-25T10:45:23.934Z,1010.38
2017-11-25T10:46:23.763Z,1010.40
2017-11-25T10:47:24.527Z,1010.40
2017-11-25T10:48:24.233Z,1010.39
2017-11-25T10:49:29.169Z,1010.35
2017-11-25T10:50:28.273Z,1010.36
2017-11-25T10:51:25.472Z,1010.29
2017-11-25T10:52:27.670Z,1010.31
2017-11-25T10:54:23.748Z,1010.34
2017-11-25T10:55:24.524Z,1010.34
2017-11-25T10:57:25.221Z,1010.36
2017-11-25T10:58:25.297Z,1010.35
2017-11-25T10:59:26.566Z,1010.33
2017-11-25T11:00:25.158Z,1010.34
2017-11-25T11:01:27.481Z,1010.35
2017-11-25T11:02:28.657Z,1010.38
2017-11-25T11:03:25.417Z,1010.32
2017-11-25T11:04:25.599Z,1010.32
2017-11-25T11:05:25.617Z,1010.30
2017-11-25T11:06:25.284Z,1010.32
2017-11-25T11:07:26.174Z,1010.33
2017-11-25T11:08:26.395Z,1010.32
2017-11-25T11:09:25.219Z,1010.31
2017-11-25T11:10:25.262Z,1010.30
2017-11-25T11:11:27.096Z,1010.32
2017-11-25T11:12:25.917Z,1010.30
2017-11-25T11:13:25.605Z,1010.28
2017-11-25T11:14:25.284Z,1010.26
2017-11-25T11:15:25.970Z,1010.34
2017-11-25T11:16:25.884Z,1010.35
2017-11-25T11:17:25.212Z,1010.33
2017-11-25T11:18:25.226Z,1010.33
2017-11-25T11:19:25.867Z,1010.39
2017-11-25T11:20:25.967Z,1010.40
2017-11-25T11:21:25.679Z,1010.38
2017-11-25T11:22:25.546Z,1010.42
2017-11-25T11:23:26.097Z,1010.42
2017-11-25T11:24:26.204Z,1010.43
2017-11-25T11:25:25.494Z,1010.43
2017-11-25T11:26:25.292Z,1010.46
2017-11-25T11:27:25.297Z,1010.43
2017-11-25T11:28:25.836Z,1010.40
2017-11-25T11:29:26.588Z,1010.42
2017-11-25T11:30:25.993Z,1010.42
2017-11-25T11:31:26.480Z,1010.36
2017-11-25T11:32:25.281Z,1010.37
2017-11-25T11:33:25.857Z,1010.37
2017-11-25T11:34:25.743Z,1010.39
2017-11-25T11:35:26.778Z,1010.33
2017-11-25T11:36:25.179Z,1010.39
2017-11-25T11:37:25.737Z,1010.40
2017-11-25T11:38:25.159Z,1010.35
2017-11-25T11:39:25.878Z,1010.39
2017-11-25T11:40:25.485Z,1010.35
2017-11-25T11:41:25.260Z,1010.39
2017-11-25T11:42:27.036Z,1010.37
2017-11-25T11:43:25.755Z,1010.39
2017-11-25T11:44:25.779Z,1010.40
2017-11-25T11:45:25.601Z,1010.38
2017-11-25T11:46:25.417Z,1010.40
2017-11-25T11:47:25.520Z,1010.42
2017-11-25T11:48:25.182Z,1010.44
2017-11-25T11:49:26.074Z,1010.43
2017-11-25T11:50:25.154Z,1010.48
2017-11-25T11:51:25.875Z,1010.41
2017-11-25T11:52:25.462Z,1010.43
2017-11-25T11:53:26.408Z,1010.46
2017-11-25T11:54:26.197Z,1010.48
2017-11-25T11:55:25.554Z,1010.43
2017-11-25T11:56:28.074Z,1010.46
2017-11-25T11:57:25.856Z,1010.44
2017-11-25T11:58:26.107Z,1010.49
2017-11-25T11:59:25.743Z,1010.49
2017-11-25T12:00:25.590Z,1010.50
2017-11-25T12:01:25.382Z,1010.54
2017-11-25T12:02:25.481Z,1010.51
2017-11-25T12:03:25.410Z,1010.51
2017-11-25T12:04:25.318Z,1010.53
2017-11-25T12:05:25.688Z,1010.45
2017-11-25T12:06:27.509Z,1010.46
2017-11-25T12:07:25.367Z,1010.43
2017-11-25T12:08:25.314Z,1010.44
2017-11-25T12:09:25.869Z,1010.45
2017-11-25T12:10:26.510Z,1010.47
2017-11-25T12:11:25.953Z,1010.48
2017-11-25T12:12:25.745Z,1010.49
2017-11-25T12:13:25.900Z,1010.52
2017-11-25T12:14:25.465Z,1010.50
2017-11-25T12:15:25.179Z,1010.52
2017-11-25T12:16:25.874Z,1010.51
2017-11-25T12:17:26.112Z,1010.51